Time;durP1;ratioP1;P1;durP2;ratioP2;P2;SDS_P1;SDS_P2;PMS_P1;PMS_P2;Temp;Humidity;BMP_temperature;BMP_pressure;BME280_temperature;BME280_humidity;BME280_pressure;Samples;Min_cycle;Max_cycle;Signal;HPM_P1;HPM_P2
2022/07/08 00:01:37;;;;;;;5.53;3.17;;;20.20;38.40;;;;;;5049680;28;20863;-72
2022/07/08 00:04:03;;;;;;;5.13;2.90;;;20.50;37.20;;;;;;5050478;28;20183;-72
2022/07/08 00:06:29;;;;;;;3.33;2.97;;;20.60;37.30;;;;;;5051599;28;20540;-72
2022/07/08 00:08:56;;;;;;;4.93;3.27;;;20.60;37.10;;;;;;5051094;28;21015;-71
2022/07/08 00:11:22;;;;;;;11.13;3.40;;;20.00;38.70;;;;;;5046554;28;20228;-71
2022/07/08 00:13:48;;;;;;;5.43;2.90;;;19.90;39.00;;;;;;5050156;28;20443;-72
2022/07/08 00:16:14;;;;;;;3.03;2.80;;;20.00;38.70;;;;;;5051290;28;20467;-72
2022/07/08 00:18:40;;;;;;;5.63;3.07;;;19.60;40.00;;;;;;5051311;28;20452;-72
2022/07/08 00:21:05;;;;;;;6.70;3.73;;;19.50;40.90;;;;;;5048491;28;20660;-72
2022/07/08 00:23:31;;;;;;;3.87;3.00;;;19.40;41.10;;;;;;5050202;28;20192;-71
2022/07/08 00:25:56;;;;;;;3.93;2.80;;;19.30;41.10;;;;;;5050527;28;20195;-71
2022/07/08 00:28:22;;;;;;;4.93;3.60;;;19.30;41.00;;;;;;5051322;28;20250;-71
2022/07/08 00:30:48;;;;;;;4.63;3.20;;;19.60;41.30;;;;;;5049158;28;20584;-71
2022/07/08 00:33:13;;;;;;;4.50;3.07;;;20.00;40.10;;;;;;5050686;28;20184;-71
2022/07/08 00:35:39;;;;;;;3.90;3.30;;;20.20;38.50;;;;;;5050823;28;20205;-72
2022/07/08 00:38:04;;;;;;;3.50;3.10;;;20.50;37.30;;;;;;5049728;28;20207;-71
2022/07/08 00:40:30;;;;;;;10.83;3.30;;;20.30;37.80;;;;;;5051317;28;20285;-72
2022/07/08 00:42:56;;;;;;;7.00;3.90;;;20.30;38.40;;;;;;5048546;28;20189;-71
2022/07/08 00:45:21;;;;;;;9.33;4.30;;;19.60;38.00;;;;;;5049800;28;20187;-71
2022/07/08 00:47:47;;;;;;;8.93;4.20;;;17.60;36.50;;;;;;5050269;28;20185;-72
2022/07/08 00:50:13;;;;;;;6.33;4.03;;;19.10;38.40;;;;;;5049628;28;20226;-71
2022/07/08 00:52:39;;;;;;;14.10;4.77;;;18.80;39.50;;;;;;5048543;28;20280;-72
2022/07/08 00:55:07;;;;;;;16.60;4.47;;;18.70;39.50;;;;;;5050337;28;20192;-71
2022/07/08 00:57:33;;;;;;;12.67;4.03;;;18.70;38.80;;;;;;5051215;28;20471;-71
2022/07/08 00:59:59;;;;;;;11.90;4.23;;;18.40;39.80;;;;;;5050166;28;20462;-72
2022/07/08 01:02:25;;;;;;;10.90;4.23;;;18.70;38.30;;;;;;5049964;28;20944;-72
2022/07/08 01:04:51;;;;;;;10.73;4.50;;;19.00;36.90;;;;;;5049282;28;20446;-72
2022/07/08 01:07:17;;;;;;;17.43;4.97;;;18.50;37.40;;;;;;5049665;28;20250;-71
2022/07/08 01:09:43;;;;;;;14.57;4.50;;;18.60;36.70;;;;;;5050865;28;20210;-72
2022/07/08 01:12:09;;;;;;;10.60;4.30;;;19.20;35.60;;;;;;5050198;28;20430;-72
2022/07/08 01:14:35;;;;;;;8.60;4.30;;;19.40;35.30;;;;;;5031864;28;20207;-71
2022/07/08 01:17:00;;;;;;;16.10;4.30;;;19.60;34.80;;;;;;5049533;28;20250;-71
2022/07/08 01:19:26;;;;;;;12.17;4.00;;;19.40;34.60;;;;;;5049763;28;20433;-72
2022/07/08 01:21:52;;;;;;;12.67;4.17;;;19.40;35.00;;;;;;5049433;28;20651;-72
2022/07/08 01:24:18;;;;;;;13.20;4.37;;;18.90;36.00;;;;;;5049676;28;20206;-71
2022/07/08 01:26:44;;;;;;;9.50;4.40;;;18.50;36.90;;;;;;5050494;28;20563;-70
2022/07/08 01:29:11;;;;;;;15.50;4.43;;;18.60;36.30;;;;;;5050013;28;20446;-72
2022/07/08 01:31:37;;;;;;;11.17;4.63;;;18.90;35.10;;;;;;5049755;28;20463;-71
2022/07/08 01:34:03;;;;;;;11.70;4.47;;;18.80;34.30;;;;;;5050192;28;20424;-71
2022/07/08 01:36:29;;;;;;;13.33;4.80;;;18.20;35.30;;;;;;5048668;28;20526;-70
2022/07/08 01:38:54;;;;;;;12.87;5.40;;;18.20;35.80;;;;;;5049748;28;20260;-72
2022/07/08 01:41:20;;;;;;;12.50;5.50;;;18.40;34.00;;;;;;5044838;28;20196;-72
2022/07/08 01:43:46;;;;;;;14.70;5.77;;;18.40;34.40;;;;;;5041365;28;20661;-71
2022/07/08 01:46:11;;;;;;;29.03;6.70;;;17.90;34.60;;;;;;5042441;28;20194;-71
2022/07/08 01:48:37;;;;;;;21.47;6.37;;;17.70;35.30;;;;;;5044359;28;20277;-71
2022/07/08 01:51:03;;;;;;;15.07;5.70;;;17.90;34.70;;;;;;5043395;28;20246;-72
2022/07/08 01:53:29;;;;;;;25.27;6.97;;;18.30;33.60;;;;;;5043703;28;20297;-72
2022/07/08 01:55:55;;;;;;;20.17;6.57;;;18.10;33.80;;;;;;5043566;28;20202;-72
2022/07/08 01:58:21;;;;;;;18.43;7.30;;;18.50;33.00;;;;;;5040317;28;20934;-71
2022/07/08 02:00:46;;;;;;;10.70;6.27;;;18.30;32.80;;;;;;5041856;28;20460;-72
2022/07/08 02:03:12;;;;;;;16.60;7.20;;;18.10;33.30;;;;;;5041779;28;20413;-71
2022/07/08 02:05:38;;;;;;;18.83;5.80;;;17.60;34.00;;;;;;5043054;28;20202;-71
2022/07/08 02:08:04;;;;;;;11.83;5.97;;;17.80;34.10;;;;;;5048249;28;20195;-71
2022/07/08 02:13:16;;;;;;;16.23;6.63;;;17.90;32.90;;;;;;5043800;28;20918;-71
2022/07/08 02:15:42;;;;;;;10.60;6.27;;;17.60;33.80;;;;;;5049606;28;20507;-70
2022/07/08 02:18:08;;;;;;;14.53;6.17;;;17.90;33.90;;;;;;5052693;28;20572;-71
2022/07/08 02:20:33;;;;;;;10.20;5.93;;;17.80;32.90;;;;;;5049884;28;20481;-71
2022/07/08 02:22:59;;;;;;;17.27;6.57;;;17.40;34.00;;;;;;5051925;28;20551;-71
2022/07/08 02:25:25;;;;;;;14.40;6.60;;;17.20;34.60;;;;;;5053075;28;20197;-71
2022/07/08 02:27:50;;;;;;;18.10;6.30;;;17.40;34.30;;;;;;5053832;28;20268;-71
2022/07/08 02:30:16;;;;;;;19.63;6.40;;;17.60;34.00;;;;;;5052087;28;20241;-71
2022/07/08 02:32:42;;;;;;;15.33;6.07;;;17.50;33.90;;;;;;5052291;28;20251;-72
2022/07/08 02:35:07;;;;;;;12.10;5.27;;;18.00;32.90;;;;;;5053468;28;20185;-71
2022/07/08 02:37:33;;;;;;;12.43;5.67;;;18.20;32.80;;;;;;5053779;28;20172;-72
2022/07/08 02:39:59;;;;;;;17.53;6.00;;;18.40;31.50;;;;;;5053596;28;20592;-72
2022/07/08 02:42:24;;;;;;;19.40;5.57;;;18.30;32.30;;;;;;5051624;28;20311;-72
2022/07/08 02:44:50;;;;;;;22.10;6.37;;;18.50;31.80;;;;;;5053347;28;20554;-71
2022/07/08 02:47:15;;;;;;;10.20;5.27;;;18.40;31.80;;;;;;5051801;28;20192;-72
2022/07/08 02:49:41;;;;;;;21.53;6.10;;;17.80;32.80;;;;;;5053221;28;20187;-71
2022/07/08 02:52:07;;;;;;;21.80;5.97;;;17.70;33.40;;;;;;5051645;28;20184;-71
2022/07/08 02:54:32;;;;;;;16.53;5.93;;;18.20;33.20;;;;;;5053117;28;20177;-72
2022/07/08 02:56:58;;;;;;;19.23;5.50;;;18.50;32.60;;;;;;5052113;28;20572;-72
2022/07/08 02:59:24;;;;;;;19.73;6.03;;;18.40;31.80;;;;;;5035048;28;20178;-71
2022/07/08 03:01:49;;;;;;;16.37;5.57;;;18.50;33.00;;;;;;5051565;28;20254;-71
2022/07/08 03:04:15;;;;;;;13.23;5.60;;;19.00;31.70;;;;;;5051694;28;20186;-71
2022/07/08 03:06:41;;;;;;;16.53;6.13;;;19.00;31.20;;;;;;5053161;28;20189;-72
2022/07/08 03:09:06;;;;;;;14.37;5.30;;;19.10;31.30;;;;;;5052017;28;20190;-72
2022/07/08 03:11:32;;;;;;;15.47;5.10;;;18.70;31.70;;;;;;5050534;28;20222;-72
2022/07/08 03:13:59;;;;;;;14.20;6.40;;;18.90;32.20;;;;;;5051715;28;20228;-71
2022/07/08 03:16:25;;;;;;;10.73;5.70;;;18.70;31.90;;;;;;5053035;28;20855;-72
2022/07/08 03:18:50;;;;;;;12.30;5.30;;;18.20;33.00;;;;;;5051653;28;20239;-72
2022/07/08 03:21:16;;;;;;;13.00;5.10;;;17.80;33.70;;;;;;5051026;28;20251;-70
2022/07/08 03:23:42;;;;;;;14.60;5.53;;;17.80;34.10;;;;;;5050819;28;20645;-71
2022/07/08 03:26:07;;;;;;;10.07;5.07;;;18.20;34.00;;;;;;5052045;28;20236;-71
2022/07/08 03:28:33;;;;;;;16.53;5.20;;;18.00;33.20;;;;;;5052748;28;20191;-72
2022/07/08 03:30:58;;;;;;;16.40;5.40;;;18.30;33.50;;;;;;5051030;28;20231;-72
2022/07/08 03:33:24;;;;;;;13.27;4.97;;;16.20;31.00;;;;;;5051521;28;20216;-72
2022/07/08 03:35:50;;;;;;;15.07;5.80;;;18.60;32.40;;;;;;5052026;28;20210;-70
2022/07/08 03:38:16;;;;;;;12.33;5.50;;;18.00;33.60;;;;;;5051852;28;20187;-72
2022/07/08 03:43:26;;;;;;;15.70;6.37;;;17.70;34.20;;;;;;5042142;28;20423;-71
2022/07/08 03:45:52;;;;;;;25.00;5.73;;;17.90;35.10;;;;;;5040795;28;20427;-71
2022/07/08 03:48:18;;;;;;;21.07;5.53;;;18.50;33.80;;;;;;5041257;28;20186;-71
2022/07/08 03:50:43;;;;;;;10.73;5.03;;;18.90;32.80;;;;;;5039080;28;20304;-70
2022/07/08 03:53:09;;;;;;;13.40;5.40;;;19.10;32.10;;;;;;5044227;28;20189;-71
2022/07/08 03:55:34;;;;;;;12.67;5.50;;;19.30;30.90;;;;;;5043146;28;20588;-71
2022/07/08 03:58:00;;;;;;;15.00;4.70;;;19.00;31.00;;;;;;5041970;28;20400;-71
2022/07/08 04:00:26;;;;;;;18.87;5.60;;;18.60;32.70;;;;;;5044544;28;20562;-71
2022/07/08 04:02:52;;;;;;;22.63;5.40;;;18.40;32.70;;;;;;5043458;28;20285;-71
2022/07/08 04:05:17;;;;;;;20.43;5.93;;;18.00;33.70;;;;;;5043479;28;20166;-71
2022/07/08 04:07:43;;;;;;;15.23;5.27;;;17.70;34.70;;;;;;5022472;28;20650;-71
2022/07/08 04:10:09;;;;;;;15.20;5.57;;;18.10;34.60;;;;;;5044278;28;20479;-71
2022/07/08 04:12:34;;;;;;;12.00;6.10;;;18.40;33.60;;;;;;5039227;28;20289;-71
2022/07/08 04:15:00;;;;;;;19.73;6.00;;;18.80;32.90;;;;;;5042377;28;20185;-71
2022/07/08 04:17:26;;;;;;;14.70;5.40;;;18.70;32.30;;;;;;5044328;28;20231;-72
2022/07/08 04:19:52;;;;;;;11.83;5.00;;;18.30;32.60;;;;;;5039928;28;20277;-72
2022/07/08 04:22:17;;;;;;;16.63;5.93;;;17.80;33.90;;;;;;5041718;28;20191;-72
2022/07/08 04:24:43;;;;;;;12.43;5.30;;;18.30;35.30;;;;;;5044649;28;20477;-70
2022/07/08 04:27:08;;;;;;;11.60;5.00;;;18.00;32.90;;;;;;5041644;28;20643;-72
2022/07/08 04:29:34;;;;;;;10.83;5.43;;;18.20;33.00;;;;;;5040985;28;20185;-72
2022/07/08 04:32:00;;;;;;;14.53;5.53;;;18.40;33.10;;;;;;5045688;28;20181;-72
2022/07/08 04:34:26;;;;;;;19.67;5.03;;;18.30;32.90;;;;;;5039906;28;20660;-71
2022/07/08 04:36:51;;;;;;;9.73;4.90;;;17.90;33.60;;;;;;5040110;28;20201;-71
2022/07/08 04:39:17;;;;;;;13.97;4.97;;;18.10;34.10;;;;;;5040105;28;20419;-71
2022/07/08 04:41:42;;;;;;;18.73;6.07;;;18.70;34.50;;;;;;5038309;28;20692;-72
2022/07/08 04:44:08;;;;;;;12.70;5.03;;;18.90;34.00;;;;;;5042820;28;20194;-72
2022/07/08 04:46:34;;;;;;;14.90;4.87;;;19.20;33.10;;;;;;5042998;28;20178;-72
2022/07/08 04:48:59;;;;;;;10.77;4.63;;;18.70;32.10;;;;;;5041718;28;20601;-72
2022/07/08 04:51:25;;;;;;;17.10;6.33;;;18.10;33.50;;;;;;5041066;28;20204;-72
2022/07/08 04:53:50;;;;;;;17.60;5.40;;;18.30;34.30;;;;;;5049519;28;20276;-72
2022/07/08 04:56:16;;;;;;;14.97;5.40;;;18.40;32.20;;;;;;5047936;28;20221;-71
2022/07/08 04:58:42;;;;;;;14.23;4.63;;;18.20;33.60;;;;;;5048303;28;20196;-72
2022/07/08 05:01:07;;;;;;;10.10;4.93;;;18.40;33.80;;;;;;5050057;28;20238;-72
2022/07/08 05:03:33;;;;;;;12.47;5.30;;;18.70;33.50;;;;;;5046892;28;20278;-72
2022/07/08 05:05:59;;;;;;;13.67;5.07;;;18.70;31.70;;;;;;5046975;28;20691;-72
2022/07/08 05:08:24;;;;;;;18.17;5.27;;;17.70;34.30;;;;;;5046606;28;20636;-72
2022/07/08 05:10:50;;;;;;;15.60;5.17;;;17.40;35.20;;;;;;5046852;28;20310;-72
2022/07/08 05:13:16;;;;;;;17.60;4.90;;;18.20;34.70;;;;;;5049897;28;20677;-72
2022/07/08 05:15:41;;;;;;;14.30;4.93;;;18.60;33.10;;;;;;5047355;28;20211;-72
2022/07/08 05:18:07;;;;;;;17.23;4.90;;;18.40;32.60;;;;;;5046425;28;20434;-71
2022/07/08 05:20:33;;;;;;;14.73;5.67;;;17.80;34.30;;;;;;5050404;28;20664;-72
2022/07/08 05:22:59;;;;;;;24.07;5.07;;;17.70;35.60;;;;;;5049101;28;20177;-72
2022/07/08 05:25:24;;;;;;;13.20;5.70;;;17.80;34.80;;;;;;5047861;28;20490;-72
2022/07/08 05:27:50;;;;;;;11.43;5.10;;;18.30;34.00;;;;;;5046680;28;20783;-72
2022/07/08 05:30:16;;;;;;;19.20;5.20;;;18.50;33.20;;;;;;5046944;28;20206;-72
2022/07/08 05:32:42;;;;;;;13.47;5.10;;;18.20;33.30;;;;;;5047676;28;20199;-74
2022/07/08 05:35:09;;;;;;;14.37;5.40;;;18.30;34.70;;;;;;5047320;28;20198;-72
2022/07/08 05:37:38;;;;;;;17.17;5.20;;;18.20;33.30;;;;;;5050770;28;20435;-72
2022/07/08 05:40:10;;;;;;;10.67;4.80;;;17.60;35.10;;;;;;5052399;28;20891;-71
2022/07/08 05:42:36;;;;;;;18.73;6.23;;;17.80;34.40;;;;;;5054224;28;20493;-72
2022/07/08 05:45:03;;;;;;;16.07;5.10;;;17.90;35.60;;;;;;5052844;28;20849;-73
2022/07/08 05:47:28;;;;;;;8.53;4.30;;;18.60;34.10;;;;;;5052679;28;20549;-72
2022/07/08 05:49:54;;;;;;;14.43;5.23;;;18.00;33.90;;;;;;5054162;28;20444;-73
2022/07/08 05:52:20;;;;;;;16.57;5.53;;;18.00;34.70;;;;;;5054106;28;20300;-73
2022/07/08 05:54:45;;;;;;;22.03;5.17;;;18.70;34.30;;;;;;5054021;28;20199;-73
2022/07/08 05:57:14;;;;;;;15.77;5.93;;;18.50;32.60;;;;;;5053617;28;20207;-72
2022/07/08 05:59:41;;;;;;;15.97;5.53;;;17.90;34.10;;;;;;5054040;28;20664;-73
2022/07/08 06:02:07;;;;;;;19.93;5.20;;;17.30;35.90;;;;;;5053863;28;20415;-72
2022/07/08 06:04:32;;;;;;;10.63;4.67;;;17.50;36.70;;;;;;5054408;28;20459;-72
2022/07/08 06:06:58;;;;;;;10.90;4.53;;;17.70;35.50;;;;;;5053715;28;20514;-72
2022/07/08 06:09:24;;;;;;;16.33;5.10;;;17.50;35.50;;;;;;5053228;28;20189;-72
2022/07/08 06:11:50;;;;;;;18.10;5.50;;;18.10;36.50;;;;;;5053390;28;20200;-72
2022/07/08 06:14:16;;;;;;;8.87;4.40;;;17.80;35.40;;;;;;5053674;28;20416;-72
2022/07/08 06:16:42;;;;;;;11.60;4.90;;;17.20;36.40;;;;;;5053874;28;20991;-72
2022/07/08 06:19:08;;;;;;;24.10;5.43;;;17.50;35.20;;;;;;5053471;28;20478;-72
2022/07/08 06:21:34;;;;;;;25.40;5.27;;;17.60;36.00;;;;;;5040620;28;20492;-72
2022/07/08 06:24:00;;;;;;;22.17;5.20;;;17.80;35.10;;;;;;5033810;28;20174;-73
2022/07/08 06:26:26;;;;;;;11.67;5.33;;;17.80;35.30;;;;;;5033925;28;20181;-71
2022/07/08 06:28:52;;;;;;;23.80;5.33;;;17.60;36.20;;;;;;5033859;28;20482;-73
2022/07/08 06:31:17;;;;;;;13.23;5.53;;;17.80;34.40;;;;;;5038479;28;20255;-73
2022/07/08 06:33:43;;;;;;;11.57;5.03;;;18.20;35.00;;;;;;5053441;28;20185;-73
2022/07/08 06:36:09;;;;;;;9.83;4.77;;;18.90;33.10;;;;;;5051045;28;20300;-73
2022/07/08 06:38:34;;;;;;;11.83;4.57;;;19.40;33.40;;;;;;5033697;28;20224;-73
2022/07/08 06:41:00;;;;;;;9.90;3.90;;;19.70;30.00;;;;;;5033016;28;20256;-73
2022/07/08 06:43:25;;;;;;;11.83;3.97;;;19.80;30.60;;;;;;5033330;28;20629;-73
2022/07/08 06:45:51;;;;;;;15.10;4.33;;;19.90;29.80;;;;;;5033101;28;20278;-73
2022/07/08 06:48:17;;;;;;;11.50;4.33;;;19.90;31.80;;;;;;5035438;28;20221;-72
2022/07/08 06:50:42;;;;;;;10.57;3.87;;;20.10;30.80;;;;;;5033056;28;20285;-71
2022/07/08 06:53:08;;;;;;;13.13;4.07;;;20.20;29.30;;;;;;5032804;28;20650;-73
2022/07/08 06:55:34;;;;;;;11.13;4.10;;;20.20;29.20;;;;;;5033117;28;20260;-73
2022/07/08 06:57:59;;;;;;;17.20;4.43;;;20.00;30.00;;;;;;5041478;28;20213;-73
2022/07/08 07:00:25;;;;;;;12.37;4.93;;;19.80;29.50;;;;;;5053089;28;20570;-73
2022/07/08 07:02:51;;;;;;;12.97;4.17;;;20.00;31.00;;;;;;5052625;28;20233;-73
2022/07/08 07:05:19;;;;;;;11.30;4.33;;;20.20;30.20;;;;;;5037162;28;20238;-73
2022/07/08 07:07:45;;;;;;;9.63;4.40;;;20.30;30.00;;;;;;5051800;28;20942;-73
2022/07/08 07:10:11;;;;;;;9.63;4.37;;;20.30;29.50;;;;;;5052823;28;20460;-73
2022/07/08 07:12:37;;;;;;;7.00;3.90;;;20.40;28.70;;;;;;5052295;28;20414;-73
2022/07/08 07:15:03;;;;;;;13.83;4.80;;;20.50;29.10;;;;;;5052760;28;20653;-73
2022/07/08 07:17:29;;;;;;;15.30;4.53;;;20.50;28.40;;;;;;5051904;28;20214;-73
2022/07/08 07:19:54;;;;;;;9.37;3.63;;;20.30;27.30;;;;;;5035445;28;20452;-73
2022/07/08 07:22:20;;;;;;;11.10;4.00;;;19.10;29.60;;;;;;5014346;28;20206;-73
2022/07/08 07:24:46;;;;;;;10.83;4.10;;;19.00;29.90;;;;;;5032533;28;20730;-73
2022/07/08 07:27:11;;;;;;;13.33;4.23;;;19.80;30.00;;;;;;5037100;28;20187;-72
2022/07/08 07:29:37;;;;;;;13.13;3.73;;;20.30;28.20;;;;;;5052370;28;20211;-73
2022/07/08 07:32:03;;;;;;;17.73;3.90;;;19.60;27.60;;;;;;5052039;28;20262;-73
2022/07/08 07:34:29;;;;;;;14.07;4.23;;;19.40;28.50;;;;;;5052313;28;20189;-72
2022/07/08 07:36:55;;;;;;;18.97;4.77;;;19.00;29.30;;;;;;5052615;28;20453;-73
2022/07/08 07:39:20;;;;;;;11.57;4.00;;;19.40;29.40;;;;;;5052180;28;20266;-73
2022/07/08 07:41:46;;;;;;;12.33;4.27;;;19.40;27.10;;;;;;5051726;28;20655;-72
2022/07/08 07:44:12;;;;;;;17.80;3.60;;;19.50;28.20;;;;;;5052030;28;20258;-73
2022/07/08 07:46:37;;;;;;;12.70;4.33;;;19.60;29.00;;;;;;5051837;28;20183;-73
2022/07/08 07:49:03;;;;;;;7.97;3.83;;;20.00;27.60;;;;;;5051445;28;20230;-73
2022/07/08 07:51:29;;;;;;;11.23;4.03;;;20.10;26.70;;;;;;5050668;28;20257;-73
2022/07/08 07:53:55;;;;;;;12.07;4.50;;;19.80;28.30;;;;;;5051729;28;20186;-73
2022/07/08 07:56:21;;;;;;;10.47;3.80;;;20.20;27.70;;;;;;5051716;28;20234;-73
2022/07/08 07:58:46;;;;;;;10.80;3.80;;;20.70;27.90;;;;;;5051327;28;20204;-73
2022/07/08 08:01:12;;;;;;;11.97;3.70;;;20.90;26.60;;;;;;5033498;28;21000;-73
2022/07/08 08:03:38;;;;;;;9.63;4.03;;;20.90;26.60;;;;;;5051434;28;20541;-73
2022/07/08 08:06:04;;;;;;;10.00;4.33;;;21.40;26.60;;;;;;5051726;28;20197;-73
2022/07/08 08:08:33;;;;;;;16.60;3.80;;;21.10;26.10;;;;;;5051804;28;20650;-73
2022/07/08 08:11:00;;;;;;;13.27;4.70;;;21.00;26.70;;;;;;5050751;28;20966;-73
2022/07/08 08:13:26;;;;;;;14.23;4.80;;;20.50;26.60;;;;;;5051604;28;20450;-72
2022/07/08 08:15:52;;;;;;;15.93;4.30;;;19.80;27.20;;;;;;5036858;28;20476;-72
2022/07/08 08:18:17;;;;;;;7.67;4.07;;;19.00;28.30;;;;;;5049754;28;20784;-73
2022/07/08 08:20:43;;;;;;;11.60;4.00;;;18.40;29.20;;;;;;5035747;28;20192;-73
2022/07/08 08:23:10;;;;;;;9.30;4.00;;;18.70;29.30;;;;;;5045660;28;20180;-73
2022/07/08 08:25:35;;;;;;;13.20;4.80;;;18.70;29.60;;;;;;5031106;28;20204;-73
2022/07/08 08:28:02;;;;;;;14.03;4.10;;;19.50;29.70;;;;;;5031610;28;20909;-73
2022/07/08 08:30:27;;;;;;;10.70;4.00;;;20.00;28.30;;;;;;5031159;28;20448;-73
2022/07/08 08:32:54;;;;;;;20.50;4.67;;;20.80;27.90;;;;;;5047843;28;20429;-73
2022/07/08 08:35:20;;;;;;;15.60;3.57;;;20.50;26.30;;;;;;5050963;28;20188;-73
2022/07/08 08:37:45;;;;;;;15.80;4.40;;;20.60;28.20;;;;;;5051232;28;20415;-73
2022/07/08 08:40:12;;;;;;;12.07;3.70;;;21.40;27.60;;;;;;5051001;28;20232;-72
2022/07/08 08:42:40;;;;;;;11.57;4.60;;;21.90;27.30;;;;;;5044231;28;20217;-73
2022/07/08 08:45:06;;;;;;;17.63;4.30;;;21.60;27.10;;;;;;5031010;28;20425;-73
2022/07/08 08:47:33;;;;;;;10.67;3.97;;;21.80;26.10;;;;;;5030979;28;20909;-73
2022/07/08 08:52:48;;;;;;;10.50;3.97;;;21.70;24.70;;;;;;5050158;28;20440;-73
2022/07/08 08:55:22;;;;;;;16.47;4.20;;;21.80;25.80;;;;;;5050618;28;20423;-73
2022/07/08 08:57:48;;;;;;;11.63;4.27;;;21.90;24.60;;;;;;5050805;28;20406;-73
2022/07/08 09:00:14;;;;;;;7.57;4.07;;;21.40;25.30;;;;;;5048978;28;20480;-72
2022/07/08 09:02:40;;;;;;;16.23;3.93;;;20.30;26.60;;;;;;5050204;28;20179;-72
2022/07/08 09:05:06;;;;;;;15.20;3.53;;;20.20;27.40;;;;;;5050209;28;20413;-73
2022/07/08 09:07:32;;;;;;;10.57;4.80;;;21.20;27.50;;;;;;5049013;28;20639;-73
2022/07/08 09:09:57;;;;;;;12.27;4.20;;;21.70;25.70;;;;;;5048487;28;20469;-73
2022/07/08 09:12:25;;;;;;;10.83;4.13;;;22.30;24.30;;;;;;5053716;28;20574;-73
2022/07/08 09:14:51;;;;;;;9.57;3.73;;;22.10;24.80;;;;;;5057149;28;20201;-73
2022/07/08 09:17:17;;;;;;;13.33;4.07;;;22.20;26.50;;;;;;5057416;28;20458;-73
2022/07/08 09:19:50;;;;;;;17.27;4.50;;;22.40;25.30;;;;;;5056943;28;20415;-73
2022/07/08 09:22:16;;;;;;;11.00;4.00;;;21.50;25.50;;;;;;5057057;28;20410;-72
2022/07/08 09:24:43;;;;;;;12.27;4.07;;;20.50;26.00;;;;;;5056754;28;20431;-72
2022/07/08 09:27:10;;;;;;;14.33;4.03;;;20.30;26.20;;;;;;5057405;28;20424;-73
2022/07/08 09:29:39;;;;;;;11.37;4.00;;;20.00;27.10;;;;;;5057361;28;20433;-73
2022/07/08 09:32:13;;;;;;;7.70;4.00;;;20.00;28.10;;;;;;5056647;28;20433;-72
2022/07/08 09:34:40;;;;;;;16.67;4.70;;;20.30;26.30;;;;;;5056977;28;20405;-72
2022/07/08 09:37:15;;;;;;;12.30;4.33;;;20.70;26.60;;;;;;5057896;28;20862;-73
2022/07/08 09:39:41;;;;;;;12.50;4.40;;;21.50;26.10;;;;;;5057163;28;20409;-73
2022/07/08 09:42:08;;;;;;;16.93;5.00;;;21.70;25.60;;;;;;5056086;28;20425;-71
2022/07/08 09:44:34;;;;;;;12.13;4.20;;;21.50;25.40;;;;;;5057428;28;20749;-72
2022/07/08 09:47:00;;;;;;;10.70;4.40;;;20.60;27.20;;;;;;5057247;28;20794;-73
2022/07/08 09:49:28;;;;;;;12.10;4.40;;;21.00;25.50;;;;;;5057121;28;20419;-73
2022/07/08 09:51:55;;;;;;;12.27;4.50;;;21.10;27.10;;;;;;5056085;28;20191;-73
2022/07/08 09:54:21;;;;;;;14.80;4.70;;;21.60;25.80;;;;;;5051040;28;20515;-72
2022/07/08 09:57:16;;;;;;;9.40;3.90;;;21.60;24.00;;;;;;5057220;28;21022;-73
2022/07/08 09:59:41;;;;;;;8.47;3.83;;;20.90;26.50;;;;;;4975884;28;20589;-73
2022/07/08 10:02:07;;;;;;;9.47;4.30;;;21.40;24.00;;;;;;4971892;28;20462;-72
2022/07/08 10:04:33;;;;;;;5.43;3.50;;;21.00;26.10;;;;;;4956412;28;20196;-73
2022/07/08 10:06:59;;;;;;;11.90;3.87;;;22.60;26.00;;;;;;4956667;28;20189;-73
2022/07/08 10:09:26;;;;;;;14.20;4.20;;;21.70;27.00;;;;;;4956360;29;20229;-73
2022/07/08 10:11:52;;;;;;;10.57;3.87;;;21.60;24.90;;;;;;4956232;29;20207;-73
2022/07/08 10:14:19;;;;;;;14.53;4.10;;;21.50;26.70;;;;;;4957307;28;20454;-73
2022/07/08 10:16:47;;;;;;;15.60;4.50;;;22.50;26.00;;;;;;4956332;29;20574;-73
2022/07/08 10:19:20;;;;;;;14.90;4.47;;;23.00;23.90;;;;;;4956438;28;20431;-72
2022/07/08 10:21:51;;;;;;;11.30;3.97;;;23.40;25.30;;;;;;4956123;28;20441;-73
2022/07/08 10:24:23;;;;;;;7.00;3.90;;;23.70;23.00;;;;;;4952619;28;20429;-73
2022/07/08 10:26:49;;;;;;;14.57;3.80;;;24.20;22.60;;;;;;4953464;29;20813;-73
2022/07/08 10:29:15;;;;;;;16.17;4.70;;;24.00;22.40;;;;;;4958177;28;20468;-73
2022/07/08 10:31:51;;;;;;;10.63;4.07;;;24.30;20.90;;;;;;4972217;28;20923;-73
2022/07/08 10:34:21;;;;;;;7.17;3.40;;;23.30;21.80;;;;;;4972458;28;20181;-72
2022/07/08 10:36:50;;;;;;;13.97;4.03;;;23.10;23.00;;;;;;5020464;28;20463;-72
2022/07/08 10:39:27;;;;;;;11.10;3.60;;;22.40;23.00;;;;;;5033785;28;20426;-72
2022/07/08 10:42:04;;;;;;;13.03;3.93;;;22.30;23.90;;;;;;5033202;28;20492;-73
2022/07/08 10:44:59;;;;;;;8.80;3.70;;;22.20;24.20;;;;;;5033271;28;20885;-73
2022/07/08 10:47:28;;;;;;;13.13;3.63;;;23.00;23.10;;;;;;4953006;29;20426;-73
2022/07/08 10:50:05;;;;;;;12.13;4.03;;;23.40;23.80;;;;;;4952538;29;20435;-72
2022/07/08 10:52:33;;;;;;;14.63;4.37;;;24.00;22.90;;;;;;4952336;29;20840;-73
2022/07/08 10:55:13;;;;;;;11.13;3.60;;;24.50;22.00;;;;;;4952594;29;20486;-73
2022/07/08 10:57:52;;;;;;;9.83;3.57;;;24.70;21.30;;;;;;4952729;29;20510;-72
2022/07/08 11:00:18;;;;;;;7.40;3.27;;;25.00;20.90;;;;;;4952797;29;20431;-73
2022/07/08 11:02:45;;;;;;;7.17;3.20;;;24.90;19.80;;;;;;4951872;29;20431;-72
2022/07/08 11:05:35;;;;;;;16.37;3.87;;;23.80;21.10;;;;;;4952192;29;20202;-72
2022/07/08 11:08:19;;;;;;;8.57;3.50;;;24.00;21.70;;;;;;4952703;29;20473;-72
2022/07/08 11:10:49;;;;;;;11.33;3.50;;;24.60;21.80;;;;;;4952114;29;20462;-73
2022/07/08 11:13:14;;;;;;;11.33;3.83;;;24.60;20.20;;;;;;4952045;29;20426;-72
2022/07/08 11:15:40;;;;;;;12.43;3.77;;;24.50;20.10;;;;;;4952237;29;20532;-72
2022/07/08 11:18:06;;;;;;;10.47;3.80;;;22.90;22.20;;;;;;4952395;29;20643;-72
2022/07/08 11:20:33;;;;;;;9.40;3.57;;;22.00;22.80;;;;;;4952333;29;20325;-72
2022/07/08 11:23:03;;;;;;;10.83;4.00;;;21.70;23.10;;;;;;4963416;28;20248;-72
2022/07/08 11:25:30;;;;;;;8.80;3.50;;;21.70;23.40;;;;;;5032546;28;20445;-72
2022/07/08 11:27:55;;;;;;;6.27;3.70;;;21.50;23.80;;;;;;5032619;28;20506;-72
2022/07/08 11:30:21;;;;;;;7.20;3.57;;;23.10;24.10;;;;;;5032307;28;20561;-73
2022/07/08 11:32:51;;;;;;;7.63;3.70;;;24.00;22.80;;;;;;5032817;28;20732;-73
2022/07/08 11:35:21;;;;;;;7.77;3.40;;;25.00;21.30;;;;;;5040279;28;20173;-73
2022/07/08 11:37:46;;;;;;;13.03;4.10;;;26.10;20.50;;;;;;5032847;28;20423;-73
2022/07/08 11:40:15;;;;;;;13.70;3.27;;;27.10;19.40;;;;;;5032352;28;20797;-72
2022/07/08 11:42:41;;;;;;;11.30;3.37;;;26.00;18.60;;;;;;5032591;28;20222;-73
2022/07/08 11:45:10;;;;;;;7.07;3.30;;;26.10;18.60;;;;;;5038762;28;20815;-72
2022/07/08 11:47:36;;;;;;;8.30;3.17;;;26.10;18.20;;;;;;5052309;28;20414;-73
2022/07/08 11:50:02;;;;;;;12.43;4.07;;;25.80;19.00;;;;;;5052180;28;20448;-73
2022/07/08 11:52:28;;;;;;;8.00;3.10;;;25.70;19.20;;;;;;5051783;28;20210;-73
2022/07/08 11:54:57;;;;;;;4.93;3.10;;;26.30;18.90;;;;;;5051525;28;20441;-72
2022/07/08 11:57:22;;;;;;;7.73;3.30;;;26.30;17.60;;;;;;5050725;28;20817;-72
2022/07/08 11:59:49;;;;;;;18.97;3.60;;;25.50;18.70;;;;;;5052019;28;20418;-72
2022/07/08 12:02:20;;;;;;;8.57;3.57;;;24.50;19.30;;;;;;5051573;28;20217;-72
2022/07/08 12:04:50;;;;;;;7.07;3.27;;;23.70;20.90;;;;;;5051760;28;20776;-73
2022/07/08 12:07:34;;;;;;;10.43;2.90;;;23.60;21.00;;;;;;5051599;28;20821;-73
2022/07/08 12:10:02;;;;;;;6.40;3.20;;;25.10;20.20;;;;;;5051755;28;20504;-73
2022/07/08 12:12:30;;;;;;;7.03;3.30;;;25.30;19.60;;;;;;5051298;28;20410;-73
2022/07/08 12:14:56;;;;;;;5.17;3.00;;;24.90;20.40;;;;;;5051406;28;20406;-73
2022/07/08 12:17:26;;;;;;;6.10;2.97;;;26.20;20.70;;;;;;5051336;28;20541;-73
2022/07/08 12:19:54;;;;;;;25.23;3.70;;;26.70;21.10;;;;;;5051807;28;20415;-73
2022/07/08 12:22:43;;;;;;;10.10;3.20;;;27.40;17.80;;;;;;5051145;28;20407;-73
2022/07/08 12:25:08;;;;;;;11.63;3.60;;;27.80;17.50;;;;;;5051481;28;20398;-73
2022/07/08 12:27:34;;;;;;;13.70;3.10;;;28.50;16.10;;;;;;5050499;28;20468;-73
2022/07/08 12:30:05;;;;;;;11.40;3.73;;;28.60;16.60;;;;;;5051570;28;20678;-72
2022/07/08 12:32:41;;;;;;;10.33;3.60;;;26.70;16.80;;;;;;5036903;28;20180;-73
2022/07/08 12:35:11;;;;;;;5.33;2.77;;;27.60;17.30;;;;;;5031384;28;20409;-72
2022/07/08 12:37:38;;;;;;;12.27;3.40;;;28.40;17.10;;;;;;5031237;28;20693;-73
2022/07/08 12:40:17;;;;;;;9.80;3.00;;;28.30;15.10;;;;;;5031447;28;20433;-73
2022/07/08 12:43:00;;;;;;;6.63;3.23;;;27.80;16.20;;;;;;5052447;22;20875;-71
2022/07/08 12:45:28;;;;;;;10.90;3.67;;;28.30;15.50;;;;;;5027667;28;20407;-69